sensor_id;sensor_type;location;lat;lon;timestamp;P1;durP1;ratioP1;P2;durP2;ratioP2
15553;SDS011;7878;44.632;10.942;2023-09-19T00:02:16;14.98;;;6.93;;
15553;SDS011;7878;44.632;10.942;2023-09-19T00:04:44;24.50;;;8.35;;
15553;SDS011;7878;44.632;10.942;2023-09-19T00:07:10;16.48;;;7.20;;
15553;SDS011;7878;44.632;10.942;2023-09-19T00:09:36;17.33;;;6.40;;
15553;SDS011;7878;44.632;10.942;2023-09-19T01:12:09;22.02;;;7.15;;
15553;SDS011;7878;44.632;10.942;2023-09-19T01:14:43;18.45;;;6.63;;
15553;SDS011;7878;44.632;10.942;2023-09-19T01:17:38;19.45;;;6.45;;
15553;SDS011;7878;44.632;10.942;2023-09-19T01:28:51;18.58;;;6.65;;
15553;SDS011;7878;44.632;10.942;2023-09-19T01:31:31;15.43;;;6.28;;
15553;SDS011;7878;44.632;10.942;2023-09-19T01:34:02;20.15;;;6.03;;
15553;SDS011;7878;44.632;10.942;2023-09-19T01:36:33;21.23;;;6.30;;
15553;SDS011;7878;44.632;10.942;2023-09-19T01:39:04;22.02;;;5.70;;
15553;SDS011;7878;44.632;10.942;2023-09-19T01:41:41;20.25;;;6.05;;
15553;SDS011;7878;44.632;10.942;2023-09-19T01:44:17;21.77;;;6.57;;
15553;SDS011;7878;44.632;10.942;2023-09-19T01:46:58;20.17;;;7.20;;
15553;SDS011;7878;44.632;10.942;2023-09-19T01:49:37;21.90;;;5.90;;
15553;SDS011;7878;44.632;10.942;2023-09-19T01:52:14;26.58;;;7.30;;
15553;SDS011;7878;44.632;10.942;2023-09-19T01:54:55;19.58;;;6.43;;
15553;SDS011;7878;44.632;10.942;2023-09-19T01:57:32;19.48;;;5.63;;
15553;SDS011;7878;44.632;10.942;2023-09-19T02:00:07;14.15;;;6.10;;
15553;SDS011;7878;44.632;10.942;2023-09-19T02:02:40;20.55;;;7.05;;
15553;SDS011;7878;44.632;10.942;2023-09-19T02:05:10;17.13;;;6.85;;
15553;SDS011;7878;44.632;10.942;2023-09-19T02:07:37;20.50;;;7.03;;
15553;SDS011;7878;44.632;10.942;2023-09-19T02:10:05;16.17;;;5.68;;
15553;SDS011;7878;44.632;10.942;2023-09-19T02:12:32;18.88;;;7.20;;
15553;SDS011;7878;44.632;10.942;2023-09-19T02:14:58;18.90;;;5.97;;
15553;SDS011;7878;44.632;10.942;2023-09-19T02:17:24;23.30;;;7.03;;
15553;SDS011;7878;44.632;10.942;2023-09-19T02:19:54;16.60;;;7.13;;
15553;SDS011;7878;44.632;10.942;2023-09-19T02:22:20;20.35;;;6.80;;
15553;SDS011;7878;44.632;10.942;2023-09-19T02:24:47;18.83;;;6.55;;
15553;SDS011;7878;44.632;10.942;2023-09-19T02:27:13;16.58;;;6.78;;
15553;SDS011;7878;44.632;10.942;2023-09-19T02:29:41;23.45;;;7.18;;
15553;SDS011;7878;44.632;10.942;2023-09-19T02:32:07;17.58;;;7.03;;
15553;SDS011;7878;44.632;10.942;2023-09-19T02:34:34;19.63;;;7.22;;
15553;SDS011;7878;44.632;10.942;2023-09-19T02:37:02;18.67;;;8.05;;
15553;SDS011;7878;44.632;10.942;2023-09-19T02:39:30;23.73;;;6.93;;
15553;SDS011;7878;44.632;10.942;2023-09-19T02:41:59;23.13;;;6.85;;
15553;SDS011;7878;44.632;10.942;2023-09-19T02:44:25;19.92;;;7.53;;
15553;SDS011;7878;44.632;10.942;2023-09-19T02:46:50;14.75;;;6.68;;
15553;SDS011;7878;44.632;10.942;2023-09-19T02:49:16;25.55;;;8.02;;
15553;SDS011;7878;44.632;10.942;2023-09-19T02:51:45;25.92;;;8.60;;
15553;SDS011;7878;44.632;10.942;2023-09-19T02:54:12;27.95;;;8.48;;
15553;SDS011;7878;44.632;10.942;2023-09-19T02:56:38;27.77;;;8.98;;
15553;SDS011;7878;44.632;10.942;2023-09-19T02:59:04;22.73;;;8.85;;
15553;SDS011;7878;44.632;10.942;2023-09-19T03:01:30;21.58;;;9.15;;
15553;SDS011;7878;44.632;10.942;2023-09-19T03:03:57;22.63;;;8.20;;
15553;SDS011;7878;44.632;10.942;2023-09-19T03:06:23;20.83;;;7.90;;
15553;SDS011;7878;44.632;10.942;2023-09-19T03:08:49;25.88;;;9.05;;
15553;SDS011;7878;44.632;10.942;2023-09-19T03:11:16;17.73;;;8.38;;
15553;SDS011;7878;44.632;10.942;2023-09-19T03:13:50;18.60;;;7.25;;
15553;SDS011;7878;44.632;10.942;2023-09-19T03:16:16;16.60;;;7.93;;
15553;SDS011;7878;44.632;10.942;2023-09-19T03:18:42;16.23;;;7.18;;
15553;SDS011;7878;44.632;10.942;2023-09-19T03:21:08;19.67;;;7.80;;
15553;SDS011;7878;44.632;10.942;2023-09-19T03:23:33;18.75;;;8.25;;
15553;SDS011;7878;44.632;10.942;2023-09-19T03:25:59;25.75;;;8.75;;
15553;SDS011;7878;44.632;10.942;2023-09-19T03:28:25;22.58;;;9.05;;
15553;SDS011;7878;44.632;10.942;2023-09-19T03:31:00;20.08;;;9.68;;
15553;SDS011;7878;44.632;10.942;2023-09-19T03:33:27;17.70;;;10.13;;
15553;SDS011;7878;44.632;10.942;2023-09-19T03:35:53;23.60;;;9.13;;
15553;SDS011;7878;44.632;10.942;2023-09-19T03:38:19;23.48;;;9.23;;
15553;SDS011;7878;44.632;10.942;2023-09-19T03:40:45;19.13;;;8.93;;
15553;SDS011;7878;44.632;10.942;2023-09-19T03:43:10;21.85;;;9.70;;
15553;SDS011;7878;44.632;10.942;2023-09-19T03:45:36;28.02;;;9.52;;
15553;SDS011;7878;44.632;10.942;2023-09-19T03:48:08;24.60;;;8.98;;
15553;SDS011;7878;44.632;10.942;2023-09-19T03:50:37;17.15;;;8.40;;
15553;SDS011;7878;44.632;10.942;2023-09-19T03:53:02;21.00;;;9.80;;
15553;SDS011;7878;44.632;10.942;2023-09-19T03:55:28;23.27;;;11.50;;
15553;SDS011;7878;44.632;10.942;2023-09-19T03:57:57;23.40;;;10.43;;
15553;SDS011;7878;44.632;10.942;2023-09-19T04:00:23;28.92;;;10.27;;
15553;SDS011;7878;44.632;10.942;2023-09-19T04:02:51;21.23;;;9.70;;
15553;SDS011;7878;44.632;10.942;2023-09-19T04:05:18;25.05;;;10.60;;
15553;SDS011;7878;44.632;10.942;2023-09-19T04:07:44;23.73;;;10.45;;
15553;SDS011;7878;44.632;10.942;2023-09-19T04:10:09;26.83;;;11.00;;
15553;SDS011;7878;44.632;10.942;2023-09-19T04:12:39;22.88;;;10.20;;
15553;SDS011;7878;44.632;10.942;2023-09-19T04:15:05;21.63;;;10.25;;
15553;SDS011;7878;44.632;10.942;2023-09-19T04:17:32;22.55;;;10.05;;
15553;SDS011;7878;44.632;10.942;2023-09-19T04:20:01;22.45;;;11.73;;
15553;SDS011;7878;44.632;10.942;2023-09-19T04:22:26;32.30;;;12.10;;
15553;SDS011;7878;44.632;10.942;2023-09-19T04:24:52;45.80;;;11.35;;
15553;SDS011;7878;44.632;10.942;2023-09-19T04:27:17;33.78;;;10.35;;
15553;SDS011;7878;44.632;10.942;2023-09-19T04:29:43;26.77;;;11.55;;
15553;SDS011;7878;44.632;10.942;2023-09-19T04:32:09;29.60;;;11.48;;
15553;SDS011;7878;44.632;10.942;2023-09-19T04:34:35;27.23;;;11.90;;
15553;SDS011;7878;44.632;10.942;2023-09-19T04:37:03;33.60;;;11.77;;
15553;SDS011;7878;44.632;10.942;2023-09-19T04:39:29;35.92;;;11.05;;
15553;SDS011;7878;44.632;10.942;2023-09-19T04:41:55;28.60;;;11.52;;
15553;SDS011;7878;44.632;10.942;2023-09-19T04:44:22;26.25;;;11.52;;
15553;SDS011;7878;44.632;10.942;2023-09-19T04:46:47;41.40;;;12.27;;
15553;SDS011;7878;44.632;10.942;2023-09-19T04:49:13;29.05;;;11.55;;
15553;SDS011;7878;44.632;10.942;2023-09-19T04:51:39;33.83;;;12.52;;
15553;SDS011;7878;44.632;10.942;2023-09-19T04:54:05;27.95;;;12.32;;
15553;SDS011;7878;44.632;10.942;2023-09-19T04:56:31;40.30;;;12.55;;
15553;SDS011;7878;44.632;10.942;2023-09-19T04:58:57;28.02;;;12.50;;
15553;SDS011;7878;44.632;10.942;2023-09-19T05:01:24;32.17;;;12.90;;
15553;SDS011;7878;44.632;10.942;2023-09-19T05:03:50;32.88;;;12.65;;
15553;SDS011;7878;44.632;10.942;2023-09-19T05:06:17;28.90;;;12.15;;
15553;SDS011;7878;44.632;10.942;2023-09-19T05:08:50;26.58;;;11.98;;
15553;SDS011;7878;44.632;10.942;2023-09-19T05:11:17;31.27;;;12.57;;
15553;SDS011;7878;44.632;10.942;2023-09-19T05:13:44;30.88;;;12.05;;
15553;SDS011;7878;44.632;10.942;2023-09-19T05:16:09;31.67;;;11.75;;
15553;SDS011;7878;44.632;10.942;2023-09-19T05:18:35;32.67;;;12.38;;
15553;SDS011;7878;44.632;10.942;2023-09-19T05:21:04;31.70;;;13.05;;
15553;SDS011;7878;44.632;10.942;2023-09-19T05:23:30;40.53;;;13.68;;
15553;SDS011;7878;44.632;10.942;2023-09-19T05:25:56;32.47;;;13.70;;
15553;SDS011;7878;44.632;10.942;2023-09-19T05:28:25;39.08;;;14.65;;
15553;SDS011;7878;44.632;10.942;2023-09-19T05:30:51;37.97;;;14.15;;
15553;SDS011;7878;44.632;10.942;2023-09-19T05:33:18;38.70;;;15.93;;
15553;SDS011;7878;44.632;10.942;2023-09-19T05:35:44;38.53;;;16.02;;
15553;SDS011;7878;44.632;10.942;2023-09-19T05:38:12;41.55;;;16.95;;
15553;SDS011;7878;44.632;10.942;2023-09-19T05:40:39;43.97;;;17.02;;
15553;SDS011;7878;44.632;10.942;2023-09-19T05:43:09;32.40;;;17.45;;
15553;SDS011;7878;44.632;10.942;2023-09-19T05:45:34;43.65;;;17.70;;
15553;SDS011;7878;44.632;10.942;2023-09-19T05:48:11;41.45;;;17.70;;
15553;SDS011;7878;44.632;10.942;2023-09-19T05:50:38;35.67;;;17.27;;
15553;SDS011;7878;44.632;10.942;2023-09-19T05:53:04;40.55;;;17.70;;
15553;SDS011;7878;44.632;10.942;2023-09-19T05:55:31;32.92;;;15.35;;
15553;SDS011;7878;44.632;10.942;2023-09-19T05:57:57;33.30;;;15.82;;
15553;SDS011;7878;44.632;10.942;2023-09-19T06:00:23;44.50;;;16.20;;
15553;SDS011;7878;44.632;10.942;2023-09-19T06:02:54;38.92;;;16.13;;
15553;SDS011;7878;44.632;10.942;2023-09-19T06:05:22;28.10;;;14.52;;
15553;SDS011;7878;44.632;10.942;2023-09-19T06:07:49;39.00;;;15.57;;
15553;SDS011;7878;44.632;10.942;2023-09-19T06:10:17;33.05;;;14.45;;
15553;SDS011;7878;44.632;10.942;2023-09-19T06:12:43;34.67;;;16.52;;
15553;SDS011;7878;44.632;10.942;2023-09-19T06:15:09;36.33;;;16.73;;
15553;SDS011;7878;44.632;10.942;2023-09-19T06:17:41;36.67;;;16.42;;
15553;SDS011;7878;44.632;10.942;2023-09-19T06:20:13;40.97;;;17.17;;
15553;SDS011;7878;44.632;10.942;2023-09-19T06:22:40;39.17;;;17.30;;
15553;SDS011;7878;44.632;10.942;2023-09-19T06:25:07;44.88;;;18.25;;
15553;SDS011;7878;44.632;10.942;2023-09-19T06:27:36;38.17;;;17.98;;
15553;SDS011;7878;44.632;10.942;2023-09-19T06:30:03;41.33;;;18.48;;
15553;SDS011;7878;44.632;10.942;2023-09-19T06:32:29;46.80;;;19.00;;
15553;SDS011;7878;44.632;10.942;2023-09-19T06:34:55;39.20;;;17.08;;
15553;SDS011;7878;44.632;10.942;2023-09-19T06:37:21;38.42;;;15.70;;
15553;SDS011;7878;44.632;10.942;2023-09-19T06:39:47;41.75;;;16.25;;
15553;SDS011;7878;44.632;10.942;2023-09-19T06:42:15;30.70;;;15.40;;
15553;SDS011;7878;44.632;10.942;2023-09-19T06:44:42;42.15;;;14.32;;
15553;SDS011;7878;44.632;10.942;2023-09-19T06:47:08;39.47;;;14.32;;
15553;SDS011;7878;44.632;10.942;2023-09-19T06:49:35;32.30;;;13.32;;
15553;SDS011;7878;44.632;10.942;2023-09-19T06:52:01;29.67;;;13.43;;
15553;SDS011;7878;44.632;10.942;2023-09-19T06:54:27;22.52;;;13.25;;
15553;SDS011;7878;44.632;10.942;2023-09-19T06:56:56;34.67;;;13.20;;
15553;SDS011;7878;44.632;10.942;2023-09-19T06:59:23;27.45;;;11.70;;
15553;SDS011;7878;44.632;10.942;2023-09-19T07:01:49;32.70;;;12.18;;
15553;SDS011;7878;44.632;10.942;2023-09-19T07:04:16;25.63;;;11.45;;
15553;SDS011;7878;44.632;10.942;2023-09-19T07:06:44;32.38;;;12.68;;
15553;SDS011;7878;44.632;10.942;2023-09-19T07:09:14;22.98;;;11.18;;
15553;SDS011;7878;44.632;10.942;2023-09-19T07:11:40;19.60;;;10.38;;
15553;SDS011;7878;44.632;10.942;2023-09-19T07:14:07;25.58;;;11.13;;
15553;SDS011;7878;44.632;10.942;2023-09-19T07:16:36;30.23;;;11.63;;
15553;SDS011;7878;44.632;10.942;2023-09-19T07:19:04;20.05;;;11.82;;
15553;SDS011;7878;44.632;10.942;2023-09-19T07:21:30;29.42;;;13.98;;
15553;SDS011;7878;44.632;10.942;2023-09-19T07:23:59;28.08;;;13.35;;
15553;SDS011;7878;44.632;10.942;2023-09-19T07:26:25;28.15;;;13.57;;
15553;SDS011;7878;44.632;10.942;2023-09-19T07:28:53;29.25;;;14.52;;
15553;SDS011;7878;44.632;10.942;2023-09-19T07:31:19;23.02;;;13.15;;
15553;SDS011;7878;44.632;10.942;2023-09-19T07:33:45;28.08;;;13.85;;
15553;SDS011;7878;44.632;10.942;2023-09-19T07:36:11;31.13;;;14.00;;
15553;SDS011;7878;44.632;10.942;2023-09-19T07:38:38;28.70;;;15.13;;
15553;SDS011;7878;44.632;10.942;2023-09-19T07:41:08;30.02;;;16.27;;
15553;SDS011;7878;44.632;10.942;2023-09-19T07:43:34;28.20;;;16.75;;
15553;SDS011;7878;44.632;10.942;2023-09-19T07:46:07;32.15;;;17.13;;
15553;SDS011;7878;44.632;10.942;2023-09-19T07:48:36;28.45;;;15.45;;
15553;SDS011;7878;44.632;10.942;2023-09-19T07:51:04;27.83;;;17.00;;
15553;SDS011;7878;44.632;10.942;2023-09-19T07:53:36;29.05;;;17.85;;
15553;SDS011;7878;44.632;10.942;2023-09-19T07:56:06;27.63;;;17.20;;
15553;SDS011;7878;44.632;10.942;2023-09-19T07:58:32;36.60;;;18.17;;
15553;SDS011;7878;44.632;10.942;2023-09-19T08:01:02;38.65;;;17.73;;
15553;SDS011;7878;44.632;10.942;2023-09-19T08:03:34;30.23;;;15.88;;
15553;SDS011;7878;44.632;10.942;2023-09-19T08:06:05;25.17;;;16.98;;
15553;SDS011;7878;44.632;10.942;2023-09-19T08:08:32;25.23;;;15.93;;
15553;SDS011;7878;44.632;10.942;2023-09-19T08:11:04;24.50;;;15.68;;
15553;SDS011;7878;44.632;10.942;2023-09-19T08:13:40;34.20;;;17.27;;
15553;SDS011;7878;44.632;10.942;2023-09-19T08:16:11;28.15;;;15.88;;
15553;SDS011;7878;44.632;10.942;2023-09-19T08:18:40;30.30;;;15.70;;
15553;SDS011;7878;44.632;10.942;2023-09-19T08:21:06;32.85;;;17.10;;
15553;SDS011;7878;44.632;10.942;2023-09-19T08:23:36;26.85;;;16.88;;
15553;SDS011;7878;44.632;10.942;2023-09-19T08:26:03;28.25;;;16.85;;
15553;SDS011;7878;44.632;10.942;2023-09-19T08:28:32;39.05;;;17.25;;
15553;SDS011;7878;44.632;10.942;2023-09-19T08:31:05;32.13;;;17.55;;
15553;SDS011;7878;44.632;10.942;2023-09-19T08:33:32;22.67;;;15.65;;
15553;SDS011;7878;44.632;10.942;2023-09-19T08:35:58;31.10;;;17.80;;
15553;SDS011;7878;44.632;10.942;2023-09-19T08:38:24;30.52;;;16.13;;
15553;SDS011;7878;44.632;10.942;2023-09-19T08:40:56;27.13;;;16.42;;
15553;SDS011;7878;44.632;10.942;2023-09-19T08:43:23;28.50;;;16.58;;
15553;SDS011;7878;44.632;10.942;2023-09-19T08:45:49;32.13;;;16.83;;
15553;SDS011;7878;44.632;10.942;2023-09-19T08:48:27;25.92;;;15.10;;
15553;SDS011;7878;44.632;10.942;2023-09-19T08:53:26;22.52;;;14.98;;
15553;SDS011;7878;44.632;10.942;2023-09-19T08:55:57;19.02;;;12.00;;
15553;SDS011;7878;44.632;10.942;2023-09-19T08:58:30;22.95;;;11.07;;
15553;SDS011;7878;44.632;10.942;2023-09-19T09:01:00;22.95;;;13.95;;
15553;SDS011;7878;44.632;10.942;2023-09-19T09:03:26;23.30;;;12.93;;
15553;SDS011;7878;44.632;10.942;2023-09-19T09:05:57;23.50;;;13.50;;
15553;SDS011;7878;44.632;10.942;2023-09-19T09:08:23;20.00;;;11.05;;
15553;SDS011;7878;44.632;10.942;2023-09-19T09:10:50;26.10;;;14.02;;
15553;SDS011;7878;44.632;10.942;2023-09-19T09:13:17;20.13;;;12.40;;
15553;SDS011;7878;44.632;10.942;2023-09-19T09:15:43;31.25;;;11.70;;
15553;SDS011;7878;44.632;10.942;2023-09-19T09:18:10;29.58;;;13.52;;
15553;SDS011;7878;44.632;10.942;2023-09-19T09:20:36;22.92;;;11.63;;
15553;SDS011;7878;44.632;10.942;2023-09-19T09:23:01;21.98;;;11.82;;
15553;SDS011;7878;44.632;10.942;2023-09-19T09:25:48;25.15;;;10.38;;
15553;SDS011;7878;44.632;10.942;2023-09-19T09:28:20;21.25;;;10.18;;
15553;SDS011;7878;44.632;10.942;2023-09-19T09:30:47;22.52;;;13.88;;
15553;SDS011;7878;44.632;10.942;2023-09-19T09:33:13;30.05;;;12.38;;
15553;SDS011;7878;44.632;10.942;2023-09-19T09:35:53;27.08;;;11.73;;
15553;SDS011;7878;44.632;10.942;2023-09-19T09:38:28;28.33;;;11.13;;
15553;SDS011;7878;44.632;10.942;2023-09-19T09:41:11;21.35;;;9.70;;
15553;SDS011;7878;44.632;10.942;2023-09-19T09:43:41;22.27;;;10.77;;
15553;SDS011;7878;44.632;10.942;2023-09-19T09:46:12;24.35;;;10.35;;
15553;SDS011;7878;44.632;10.942;2023-09-19T09:48:48;27.77;;;11.57;;
15553;SDS011;7878;44.632;10.942;2023-09-19T09:51:46;19.85;;;9.10;;
15553;SDS011;7878;44.632;10.942;2023-09-19T09:54:57;22.05;;;8.85;;
15553;SDS011;7878;44.632;10.942;2023-09-19T09:57:32;17.92;;;7.78;;
15553;SDS011;7878;44.632;10.942;2023-09-19T09:59:59;26.67;;;10.10;;
15553;SDS011;7878;44.632;10.942;2023-09-19T10:02:37;21.95;;;8.82;;
15553;SDS011;7878;44.632;10.942;2023-09-19T10:05:15;14.68;;;8.25;;
15553;SDS011;7878;44.632;10.942;2023-09-19T10:07:45;18.17;;;8.25;;
15553;SDS011;7878;44.632;10.942;2023-09-19T10:10:33;21.73;;;8.73;;
15553;SDS011;7878;44.632;10.942;2023-09-19T10:13:06;18.17;;;8.80;;
15553;SDS011;7878;44.632;10.942;2023-09-19T10:15:33;17.15;;;8.20;;
15553;SDS011;7878;44.632;10.942;2023-09-19T10:18:01;14.55;;;6.45;;
15553;SDS011;7878;44.632;10.942;2023-09-19T10:20:30;16.42;;;7.47;;
15553;SDS011;7878;44.632;10.942;2023-09-19T10:23:08;19.33;;;7.57;;
15553;SDS011;7878;44.632;10.942;2023-09-19T10:25:41;15.82;;;7.60;;
15553;SDS011;7878;44.632;10.942;2023-09-19T10:28:12;19.73;;;8.40;;
15553;SDS011;7878;44.632;10.942;2023-09-19T10:30:42;17.08;;;7.85;;
15553;SDS011;7878;44.632;10.942;2023-09-19T10:33:11;16.58;;;7.15;;
15553;SDS011;7878;44.632;10.942;2023-09-19T10:35:39;14.73;;;8.13;;
15553;SDS011;7878;44.632;10.942;2023-09-19T10:38:10;14.77;;;7.85;;
15553;SDS011;7878;44.632;10.942;2023-09-19T10:40:37;22.80;;;8.55;;
15553;SDS011;7878;44.632;10.942;2023-09-19T10:43:18;20.35;;;9.27;;
15553;SDS011;7878;44.632;10.942;2023-09-19T10:45:46;19.48;;;8.73;;
15553;SDS011;7878;44.632;10.942;2023-09-19T10:48:17;18.60;;;8.65;;
15553;SDS011;7878;44.632;10.942;2023-09-19T10:50:58;16.77;;;9.80;;
15553;SDS011;7878;44.632;10.942;2023-09-19T10:53:31;22.92;;;9.50;;
15553;SDS011;7878;44.632;10.942;2023-09-19T10:56:13;21.50;;;7.60;;
15553;SDS011;7878;44.632;10.942;2023-09-19T11:01:44;14.07;;;8.43;;
15553;SDS011;7878;44.632;10.942;2023-09-19T11:07:01;18.20;;;9.85;;
15553;SDS011;7878;44.632;10.942;2023-09-19T11:09:45;16.25;;;9.10;;
15553;SDS011;7878;44.632;10.942;2023-09-19T11:12:12;20.17;;;9.18;;
15553;SDS011;7878;44.632;10.942;2023-09-19T11:15:00;16.42;;;9.38;;
15553;SDS011;7878;44.632;10.942;2023-09-19T11:17:36;15.07;;;8.90;;
15553;SDS011;7878;44.632;10.942;2023-09-19T11:30:45;18.27;;;8.55;;
15553;SDS011;7878;44.632;10.942;2023-09-19T11:43:47;16.30;;;7.95;;
15553;SDS011;7878;44.632;10.942;2023-09-19T11:46:13;19.25;;;6.95;;
15553;SDS011;7878;44.632;10.942;2023-09-19T11:48:46;21.88;;;7.28;;
15553;SDS011;7878;44.632;10.942;2023-09-19T11:51:18;13.05;;;6.97;;
15553;SDS011;7878;44.632;10.942;2023-09-19T11:53:45;15.30;;;7.97;;
15553;SDS011;7878;44.632;10.942;2023-09-19T11:56:14;14.27;;;7.07;;
15553;SDS011;7878;44.632;10.942;2023-09-19T11:58:45;19.75;;;7.63;;
15553;SDS011;7878;44.632;10.942;2023-09-19T12:01:14;19.40;;;7.80;;
15553;SDS011;7878;44.632;10.942;2023-09-19T12:03:47;13.88;;;7.93;;
15553;SDS011;7878;44.632;10.942;2023-09-19T12:06:23;17.00;;;7.55;;
15553;SDS011;7878;44.632;10.942;2023-09-19T12:08:49;18.23;;;9.57;;
15553;SDS011;7878;44.632;10.942;2023-09-19T12:11:16;14.05;;;7.05;;
15553;SDS011;7878;44.632;10.942;2023-09-19T12:13:43;16.00;;;7.95;;
15553;SDS011;7878;44.632;10.942;2023-09-19T12:16:14;14.40;;;6.72;;
15553;SDS011;7878;44.632;10.942;2023-09-19T12:18:48;15.98;;;7.07;;
15553;SDS011;7878;44.632;10.942;2023-09-19T12:21:33;14.43;;;7.28;;
15553;SDS011;7878;44.632;10.942;2023-09-19T12:26:39;24.40;;;8.00;;
15553;SDS011;7878;44.632;10.942;2023-09-19T12:29:11;17.58;;;7.88;;
15553;SDS011;7878;44.632;10.942;2023-09-19T12:31:47;19.75;;;8.07;;
15553;SDS011;7878;44.632;10.942;2023-09-19T12:34:19;16.70;;;7.00;;
15553;SDS011;7878;44.632;10.942;2023-09-19T12:36:47;18.63;;;8.57;;
15553;SDS011;7878;44.632;10.942;2023-09-19T12:39:23;19.40;;;7.72;;
15553;SDS011;7878;44.632;10.942;2023-09-19T12:41:52;17.60;;;7.97;;
15553;SDS011;7878;44.632;10.942;2023-09-19T12:44:18;22.60;;;7.28;;
15553;SDS011;7878;44.632;10.942;2023-09-19T12:46:45;17.17;;;6.78;;
15553;SDS011;7878;44.632;10.942;2023-09-19T12:49:17;17.58;;;7.50;;
15553;SDS011;7878;44.632;10.942;2023-09-19T12:51:44;16.50;;;7.85;;
15553;SDS011;7878;44.632;10.942;2023-09-19T12:54:11;15.90;;;8.48;;
15553;SDS011;7878;44.632;10.942;2023-09-19T12:56:40;22.98;;;10.02;;
15553;SDS011;7878;44.632;10.942;2023-09-19T12:59:09;23.20;;;9.55;;
15553;SDS011;7878;44.632;10.942;2023-09-19T13:01:38;17.23;;;8.10;;
15553;SDS011;7878;44.632;10.942;2023-09-19T13:06:45;20.17;;;9.55;;
15553;SDS011;7878;44.632;10.942;2023-09-19T13:09:13;20.48;;;8.02;;
15553;SDS011;7878;44.632;10.942;2023-09-19T13:11:40;22.45;;;8.32;;
15553;SDS011;7878;44.632;10.942;2023-09-19T13:14:13;14.30;;;8.43;;
15553;SDS011;7878;44.632;10.942;2023-09-19T13:19:38;20.63;;;8.23;;
15553;SDS011;7878;44.632;10.942;2023-09-19T13:25:10;16.83;;;7.43;;
15553;SDS011;7878;44.632;10.942;2023-09-19T13:27:43;18.25;;;8.30;;
15553;SDS011;7878;44.632;10.942;2023-09-19T13:30:10;16.52;;;8.77;;
15553;SDS011;7878;44.632;10.942;2023-09-19T13:32:37;16.05;;;8.50;;
15553;SDS011;7878;44.632;10.942;2023-09-19T13:35:05;24.05;;;8.43;;
15553;SDS011;7878;44.632;10.942;2023-09-19T13:37:33;19.10;;;8.07;;
15553;SDS011;7878;44.632;10.942;2023-09-19T13:40:06;20.20;;;7.82;;
15553;SDS011;7878;44.632;10.942;2023-09-19T13:42:33;14.75;;;7.72;;
15553;SDS011;7878;44.632;10.942;2023-09-19T13:44:59;19.15;;;7.65;;
15553;SDS011;7878;44.632;10.942;2023-09-19T13:47:25;15.05;;;7.75;;
15553;SDS011;7878;44.632;10.942;2023-09-19T13:49:52;15.68;;;7.88;;
15553;SDS011;7878;44.632;10.942;2023-09-19T13:52:21;13.07;;;7.65;;
15553;SDS011;7878;44.632;10.942;2023-09-19T13:54:48;17.80;;;8.05;;
15553;SDS011;7878;44.632;10.942;2023-09-19T13:57:17;10.55;;;6.20;;
15553;SDS011;7878;44.632;10.942;2023-09-19T13:59:43;18.27;;;7.32;;
15553;SDS011;7878;44.632;10.942;2023-09-19T14:02:09;13.60;;;6.82;;
15553;SDS011;7878;44.632;10.942;2023-09-19T14:04:35;13.93;;;7.03;;
15553;SDS011;7878;44.632;10.942;2023-09-19T14:07:01;13.82;;;8.20;;
15553;SDS011;7878;44.632;10.942;2023-09-19T14:09:27;11.90;;;6.85;;
15553;SDS011;7878;44.632;10.942;2023-09-19T14:11:53;18.52;;;7.53;;
15553;SDS011;7878;44.632;10.942;2023-09-19T14:14:19;17.15;;;7.40;;
15553;SDS011;7878;44.632;10.942;2023-09-19T14:16:47;16.83;;;7.15;;
15553;SDS011;7878;44.632;10.942;2023-09-19T14:19:13;14.27;;;6.45;;
15553;SDS011;7878;44.632;10.942;2023-09-19T14:21:41;15.93;;;7.35;;
15553;SDS011;7878;44.632;10.942;2023-09-19T14:24:07;14.75;;;6.40;;
15553;SDS011;7878;44.632;10.942;2023-09-19T14:26:37;16.85;;;7.45;;
15553;SDS011;7878;44.632;10.942;2023-09-19T14:29:06;16.52;;;7.05;;
15553;SDS011;7878;44.632;10.942;2023-09-19T14:31:33;15.38;;;6.85;;
15553;SDS011;7878;44.632;10.942;2023-09-19T14:33:59;14.43;;;6.65;;
15553;SDS011;7878;44.632;10.942;2023-09-19T14:36:25;14.45;;;6.95;;
15553;SDS011;7878;44.632;10.942;2023-09-19T14:38:55;12.50;;;6.75;;
15553;SDS011;7878;44.632;10.942;2023-09-19T14:41:21;17.27;;;7.05;;
15553;SDS011;7878;44.632;10.942;2023-09-19T14:43:48;14.10;;;6.78;;
15553;SDS011;7878;44.632;10.942;2023-09-19T14:46:14;11.00;;;6.50;;
15553;SDS011;7878;44.632;10.942;2023-09-19T14:48:41;15.18;;;6.70;;
15553;SDS011;7878;44.632;10.942;2023-09-19T14:51:07;12.25;;;5.93;;
15553;SDS011;7878;44.632;10.942;2023-09-19T14:53:34;15.27;;;6.50;;
15553;SDS011;7878;44.632;10.942;2023-09-19T14:56:02;16.27;;;6.60;;
15553;SDS011;7878;44.632;10.942;2023-09-19T14:58:31;15.18;;;7.15;;
15553;SDS011;7878;44.632;10.942;2023-09-19T15:01:16;13.43;;;7.28;;
15553;SDS011;7878;44.632;10.942;2023-09-19T15:03:41;17.30;;;6.78;;
15553;SDS011;7878;44.632;10.942;2023-09-19T15:06:11;13.73;;;6.60;;
15553;SDS011;7878;44.632;10.942;2023-09-19T15:08:42;13.95;;;6.63;;
15553;SDS011;7878;44.632;10.942;2023-09-19T15:11:12;14.27;;;6.65;;
15553;SDS011;7878;44.632;10.942;2023-09-19T15:13:45;14.93;;;6.53;;
15553;SDS011;7878;44.632;10.942;2023-09-19T15:16:12;14.15;;;6.38;;
15553;SDS011;7878;44.632;10.942;2023-09-19T15:18:42;11.52;;;6.35;;
15553;SDS011;7878;44.632;10.942;2023-09-19T15:21:10;14.07;;;6.80;;
15553;SDS011;7878;44.632;10.942;2023-09-19T15:23:37;14.32;;;6.05;;
15553;SDS011;7878;44.632;10.942;2023-09-19T15:26:04;17.13;;;6.72;;
15553;SDS011;7878;44.632;10.942;2023-09-19T15:28:35;12.80;;;6.15;;
15553;SDS011;7878;44.632;10.942;2023-09-19T15:31:02;12.50;;;6.18;;
15553;SDS011;7878;44.632;10.942;2023-09-19T15:33:29;11.43;;;6.10;;
15553;SDS011;7878;44.632;10.942;2023-09-19T15:36:02;10.77;;;6.38;;
15553;SDS011;7878;44.632;10.942;2023-09-19T15:38:54;12.95;;;6.72;;
15553;SDS011;7878;44.632;10.942;2023-09-19T15:41:24;12.60;;;6.10;;
15553;SDS011;7878;44.632;10.942;2023-09-19T15:44:00;17.67;;;6.75;;
15553;SDS011;7878;44.632;10.942;2023-09-19T15:46:28;13.68;;;6.00;;
15553;SDS011;7878;44.632;10.942;2023-09-19T15:48:55;16.42;;;6.45;;
15553;SDS011;7878;44.632;10.942;2023-09-19T15:51:22;14.07;;;6.35;;
15553;SDS011;7878;44.632;10.942;2023-09-19T15:53:48;15.30;;;6.20;;
15553;SDS011;7878;44.632;10.942;2023-09-19T15:56:18;11.23;;;6.22;;
15553;SDS011;7878;44.632;10.942;2023-09-19T15:58:51;11.27;;;5.93;;
15553;SDS011;7878;44.632;10.942;2023-09-19T16:01:21;13.32;;;5.75;;
15553;SDS011;7878;44.632;10.942;2023-09-19T16:03:49;18.88;;;6.38;;
15553;SDS011;7878;44.632;10.942;2023-09-19T16:06:18;16.42;;;5.57;;
15553;SDS011;7878;44.632;10.942;2023-09-19T16:08:48;15.27;;;6.63;;
15553;SDS011;7878;44.632;10.942;2023-09-19T16:11:15;11.60;;;5.78;;
15553;SDS011;7878;44.632;10.942;2023-09-19T16:13:43;13.32;;;6.65;;
15553;SDS011;7878;44.632;10.942;2023-09-19T16:16:13;10.95;;;5.90;;
15553;SDS011;7878;44.632;10.942;2023-09-19T16:18:51;13.90;;;5.68;;
15553;SDS011;7878;44.632;10.942;2023-09-19T16:21:17;15.25;;;6.32;;
15553;SDS011;7878;44.632;10.942;2023-09-19T16:23:46;14.18;;;5.93;;
15553;SDS011;7878;44.632;10.942;2023-09-19T16:26:14;13.82;;;6.03;;
15553;SDS011;7878;44.632;10.942;2023-09-19T16:28:41;11.73;;;5.65;;
15553;SDS011;7878;44.632;10.942;2023-09-19T16:31:10;13.70;;;6.15;;